createdAt,value
2019-03-16T00:00:32.526Z,95131.14
2019-03-16T00:01:36.036Z,95154.55
2019-03-16T00:02:39.482Z,95135.23
2019-03-16T00:03:42.927Z,95135.23
2019-03-16T00:04:46.368Z,95135.07
2019-03-16T00:05:49.800Z,95140.13
2019-03-16T00:06:53.216Z,95148.36
2019-03-16T00:07:56.633Z,95151.36
2019-03-16T00:09:00.171Z,95140.48
2019-03-16T00:10:04.363Z,95149.67
2019-03-16T00:11:07.798Z,95159.05
2019-03-16T00:12:11.225Z,95153.44
2019-03-16T00:13:16.274Z,95151.38
2019-03-16T00:14:19.896Z,95135.44
2019-03-16T00:15:23.321Z,95164.30
2019-03-16T00:16:26.744Z,95145.55
2019-03-16T00:17:30.167Z,95151.18
2019-03-16T00:18:33.587Z,95161.13
2019-03-16T00:19:37.028Z,95161.13
2019-03-16T00:20:40.458Z,95170.11
2019-03-16T00:21:43.921Z,95170.11
2019-03-16T00:22:47.302Z,95166.38
2019-03-16T00:23:50.733Z,95175.55
2019-03-16T00:24:54.172Z,95168.23
2019-03-16T00:25:57.618Z,95154.16
2019-03-16T00:27:01.041Z,95166.37
2019-03-16T00:28:04.475Z,95166.37
2019-03-16T00:29:07.902Z,95147.62
2019-03-16T00:30:13.847Z,95142.74
2019-03-16T00:31:17.263Z,95158.87
2019-03-16T00:32:20.756Z,95158.87
2019-03-16T00:33:24.260Z,95135.44
2019-03-16T00:34:27.684Z,95144.83
2019-03-16T00:35:31.173Z,95150.42
2019-03-16T00:36:34.622Z,95160.73
2019-03-16T00:37:38.559Z,95160.73
2019-03-16T00:38:41.998Z,95151.94
2019-03-16T00:39:45.405Z,95151.94
2019-03-16T00:40:48.919Z,95156.43
2019-03-16T00:41:52.373Z,95119.31
2019-03-16T00:42:55.870Z,95131.14
2019-03-16T00:43:59.294Z,95128.88
2019-03-16T00:45:02.789Z,95134.70
2019-03-16T00:46:06.243Z,95128.31
2019-03-16T00:47:09.716Z,95135.44
2019-03-16T00:48:13.162Z,95133.00
2019-03-16T00:49:16.559Z,95129.83
2019-03-16T00:50:20.048Z,95122.71
2019-03-16T00:51:23.556Z,95124.58
2019-03-16T00:52:27.000Z,95132.45
2019-03-16T00:53:30.428Z,95116.14
2019-03-16T00:54:33.854Z,95126.27
2019-03-16T00:55:37.415Z,95124.96
2019-03-16T00:56:40.920Z,95124.58
2019-03-16T00:57:44.448Z,95133.19
2019-03-16T00:58:47.876Z,95133.19
2019-03-16T00:59:51.288Z,95133.56
2019-03-16T01:00:54.848Z,95126.63
2019-03-16T01:01:58.228Z,95121.22
2019-03-16T01:03:01.681Z,95119.34
2019-03-16T01:04:05.215Z,95129.45
2019-03-16T01:05:09.253Z,95129.26
2019-03-16T01:06:12.770Z,95139.95
2019-03-16T01:07:16.285Z,95142.94
2019-03-16T01:08:19.718Z,95149.50
2019-03-16T01:09:23.133Z,95162.05
2019-03-16T01:10:26.702Z,95146.51
2019-03-16T01:11:30.141Z,95146.51
2019-03-16T01:12:33.595Z,95152.52
2019-03-16T01:13:37.029Z,95155.69
2019-03-16T01:14:40.449Z,95164.31
2019-03-16T01:15:43.962Z,95154.55
2019-03-16T01:16:47.372Z,95163.73
2019-03-16T01:17:50.818Z,95148.56
2019-03-16T01:18:54.289Z,95157.17
2019-03-16T01:19:57.667Z,95139.02
2019-03-16T01:21:01.094Z,95160.18
2019-03-16T01:22:04.581Z,95159.63
2019-03-16T01:23:08.091Z,95180.23
2019-03-16T01:24:11.516Z,95153.06
2019-03-16T01:25:14.943Z,95166.73
2019-03-16T01:26:18.388Z,95163.56
2019-03-16T01:27:21.814Z,95163.56
2019-03-16T01:28:25.295Z,95162.42
2019-03-16T01:29:28.747Z,95149.31
2019-03-16T01:30:32.176Z,95149.31
2019-03-16T01:31:35.599Z,95154.94
2019-03-16T01:32:40.953Z,95139.00
2019-03-16T01:33:44.179Z,95169.36
2019-03-16T01:34:47.660Z,95143.88
2019-03-16T01:35:51.056Z,95150.26
2019-03-16T01:36:54.550Z,95153.06
2019-03-16T01:37:58.036Z,95159.61
2019-03-16T01:39:01.649Z,95133.95
2019-03-16T01:40:06.876Z,95148.93
2019-03-16T01:41:10.366Z,95148.93
2019-03-16T01:42:13.788Z,95161.49
2019-03-16T01:43:17.286Z,95124.39
2019-03-16T01:44:20.731Z,95148.93
2019-03-16T01:45:24.227Z,95167.88
2019-03-16T01:46:27.655Z,95156.08
2019-03-16T01:47:31.074Z,95151.38
2019-03-16T01:48:34.507Z,95162.23
2019-03-16T01:49:37.977Z,95162.23
2019-03-16T01:50:41.428Z,95156.61
2019-03-16T01:51:44.924Z,95157.00
2019-03-16T01:52:48.423Z,95136.55
2019-03-16T01:53:51.848Z,95168.03
2019-03-16T01:54:55.375Z,95153.61
2019-03-16T01:55:58.825Z,95160.17
2019-03-16T01:57:02.262Z,95148.56
2019-03-16T01:58:05.690Z,95162.61
2019-03-16T01:59:09.120Z,95171.06
2019-03-16T02:00:14.311Z,95169.34
2019-03-16T02:01:17.823Z,95181.55
2019-03-16T02:02:21.253Z,95171.43
2019-03-16T02:03:24.675Z,95176.68
2019-03-16T02:04:28.113Z,95166.19
2019-03-16T02:05:31.540Z,95209.65
2019-03-16T02:06:34.990Z,95153.80
2019-03-16T02:07:38.408Z,95170.29
2019-03-16T02:08:41.944Z,95180.98
2019-03-16T02:09:45.371Z,95184.72
2019-03-16T02:10:48.881Z,95180.41
2019-03-16T02:11:52.326Z,95175.91
2019-03-16T02:12:55.743Z,95175.73
2019-03-16T02:13:59.168Z,95181.16
2019-03-16T02:15:02.611Z,95171.41
2019-03-16T02:16:11.402Z,95174.23
2019-03-16T02:17:11.293Z,95145.37
2019-03-16T02:18:14.715Z,95166.00
2019-03-16T02:19:18.291Z,95175.53
2019-03-16T02:20:21.710Z,95175.53
2019-03-16T02:21:25.146Z,95180.61
2019-03-16T02:22:28.574Z,95182.85
2019-03-16T02:23:31.996Z,95173.12
2019-03-16T02:24:35.421Z,95185.10
2019-03-16T02:25:38.847Z,95172.54
2019-03-16T02:26:42.310Z,95195.59
2019-03-16T02:27:45.751Z,95189.59
2019-03-16T02:28:49.184Z,95189.42
2019-03-16T02:29:52.676Z,95187.91
2019-03-16T02:30:56.120Z,95204.20
2019-03-16T02:31:59.618Z,95184.53
2019-03-16T02:33:12.367Z,95192.78
2019-03-16T02:34:08.354Z,95199.34
2019-03-16T02:35:12.025Z,95193.92
2019-03-16T02:36:15.447Z,95188.84
2019-03-16T02:37:18.906Z,95199.73
2019-03-16T02:38:22.351Z,95199.34
2019-03-16T02:39:25.765Z,95190.34
2019-03-16T02:40:29.210Z,95188.09
2019-03-16T02:41:32.631Z,95154.56
2019-03-16T02:42:36.078Z,95170.11
2019-03-16T02:43:39.525Z,95176.67
2019-03-16T02:44:42.979Z,95172.94
2019-03-16T02:45:46.400Z,95188.30
2019-03-16T02:46:49.832Z,95168.43
2019-03-16T02:47:53.354Z,95176.67
2019-03-16T02:48:56.872Z,95171.98
2019-03-16T02:50:00.524Z,95175.36
2019-03-16T02:51:03.967Z,95171.42
2019-03-16T02:52:07.408Z,95180.44
2019-03-16T02:53:10.911Z,95178.17
2019-03-16T02:54:14.425Z,95167.67
2019-03-16T02:55:17.871Z,95177.41
2019-03-16T02:56:21.306Z,95178.35
2019-03-16T02:57:24.744Z,95172.92
2019-03-16T02:58:28.212Z,95174.98
2019-03-16T02:59:31.626Z,95174.98
2019-03-16T03:00:35.060Z,95185.48
2019-03-16T03:01:38.491Z,95171.25
2019-03-16T03:02:42.049Z,95172.92
2019-03-16T03:03:45.531Z,95190.52
2019-03-16T03:04:48.956Z,95190.52
2019-03-16T03:05:52.386Z,95191.11
2019-03-16T03:06:55.895Z,95173.48
2019-03-16T03:07:59.308Z,95164.69
2019-03-16T03:09:02.819Z,95164.69
2019-03-16T03:10:12.132Z,95171.63
2019-03-16T03:11:15.555Z,95184.18
2019-03-16T03:12:18.971Z,95177.98
2019-03-16T03:13:22.473Z,95176.87
2019-03-16T03:14:25.907Z,95176.30
2019-03-16T03:15:29.362Z,95172.00
2019-03-16T03:16:32.778Z,95172.00
2019-03-16T03:17:36.267Z,95175.18
2019-03-16T03:18:39.694Z,95181.54
2019-03-16T03:19:43.143Z,95192.03
2019-03-16T03:20:46.569Z,95168.81
2019-03-16T03:21:50.059Z,95170.67
2019-03-16T03:22:53.548Z,95173.30
2019-03-16T03:23:56.981Z,95177.98
2019-03-16T03:25:00.569Z,95170.70
2019-03-16T03:26:04.122Z,95180.80
2019-03-16T03:27:07.545Z,95152.87
2019-03-16T03:28:10.989Z,95206.27
2019-03-16T03:29:14.430Z,95178.55
2019-03-16T03:30:17.882Z,95178.55
2019-03-16T03:31:21.305Z,95195.77
2019-03-16T03:32:24.821Z,95190.73
2019-03-16T03:33:56.278Z,95170.11
2019-03-16T03:34:33.493Z,95170.11
2019-03-16T03:35:36.962Z,95180.81
2019-03-16T03:36:40.378Z,95178.92
2019-03-16T03:37:43.864Z,95202.15
2019-03-16T03:38:47.252Z,95181.16
2019-03-16T03:39:50.766Z,95186.23
2019-03-16T03:40:54.220Z,95182.66
2019-03-16T03:41:57.718Z,95191.28
2019-03-16T03:43:01.136Z,95189.41
2019-03-16T03:44:04.700Z,95180.79
2019-03-16T03:45:10.675Z,95186.80
2019-03-16T03:46:14.189Z,95194.66
2019-03-16T03:47:17.716Z,95196.91
2019-03-16T03:48:21.133Z,95198.39
2019-03-16T03:49:24.551Z,95199.70
2019-03-16T03:50:28.049Z,95199.70
2019-03-16T03:51:31.524Z,95211.91
2019-03-16T03:52:35.066Z,95211.91
2019-03-16T03:53:41.176Z,95199.70
2019-03-16T03:54:43.725Z,95220.89
2019-03-16T03:55:47.218Z,95220.89
2019-03-16T03:56:50.706Z,95209.66
2019-03-16T03:57:54.303Z,95209.66
2019-03-16T03:58:57.811Z,95224.09
2019-03-16T04:00:01.345Z,95216.95
2019-03-16T04:01:04.850Z,95230.65
2019-03-16T04:02:08.297Z,95219.95
2019-03-16T04:03:11.819Z,95242.25
2019-03-16T04:04:16.237Z,95242.25
2019-03-16T04:05:19.710Z,95221.65
2019-03-16T04:06:23.201Z,95221.65
2019-03-16T04:07:26.713Z,95231.38
2019-03-16T04:08:30.390Z,95253.50
2019-03-16T04:09:33.830Z,95235.89
2019-03-16T04:10:37.409Z,95242.63
2019-03-16T04:11:40.913Z,95195.79
2019-03-16T04:12:44.343Z,95239.25
2019-03-16T04:13:47.783Z,95245.25
2019-03-16T04:14:51.203Z,95243.77
2019-03-16T04:15:54.630Z,95240.19
2019-03-16T04:16:58.122Z,95239.45
2019-03-16T04:18:01.568Z,95246.39
2019-03-16T04:19:05.019Z,95254.61
2019-03-16T04:20:10.884Z,95254.61
2019-03-16T04:21:14.459Z,95250.13
2019-03-16T04:22:17.876Z,95245.08
2019-03-16T04:23:21.385Z,95223.51
2019-03-16T04:24:24.999Z,95248.25
2019-03-16T04:25:30.110Z,95248.25
2019-03-16T04:26:33.603Z,95242.63
2019-03-16T04:27:37.028Z,95242.63
2019-03-16T04:28:40.480Z,95239.83
2019-03-16T04:29:43.926Z,95240.38
2019-03-16T04:30:47.345Z,95249.36
2019-03-16T04:31:50.853Z,95256.51
2019-03-16T04:32:54.268Z,95256.51
2019-03-16T04:33:57.781Z,95244.13
2019-03-16T04:35:01.226Z,95244.13
2019-03-16T04:36:04.714Z,95248.98
2019-03-16T04:37:08.153Z,95254.79
2019-03-16T04:38:11.559Z,95254.79
2019-03-16T04:39:14.983Z,95237.19
2019-03-16T04:40:18.418Z,95247.13
2019-03-16T04:41:21.837Z,95249.55
2019-03-16T04:42:25.259Z,95249.55
2019-03-16T04:43:28.677Z,95233.63
2019-03-16T04:44:32.118Z,95215.45
2019-03-16T04:45:35.549Z,95246.38
2019-03-16T04:46:38.966Z,95237.73
2019-03-16T04:47:42.415Z,95246.55
2019-03-16T04:48:45.803Z,95238.50
2019-03-16T04:49:49.255Z,95253.11
2019-03-16T04:50:52.698Z,95253.11
2019-03-16T04:51:56.118Z,95256.48
2019-03-16T04:52:59.544Z,95246.75
2019-03-16T04:54:03.017Z,95252.73
2019-03-16T04:55:08.075Z,95252.73
2019-03-16T04:56:11.585Z,95251.80
2019-03-16T04:57:15.017Z,95251.80
2019-03-16T04:58:18.442Z,95256.49
2019-03-16T04:59:21.862Z,95256.49
2019-03-16T05:00:25.300Z,95256.66
2019-03-16T05:01:28.753Z,95262.11
2019-03-16T05:02:32.176Z,95255.18
2019-03-16T05:03:35.656Z,95260.42
2019-03-16T05:04:42.774Z,95262.09
2019-03-16T05:05:44.241Z,95262.09
2019-03-16T05:06:47.738Z,95243.38
2019-03-16T05:07:51.157Z,95260.22
2019-03-16T05:08:54.580Z,95249.73
2019-03-16T05:09:58.006Z,95243.18
2019-03-16T05:11:01.449Z,95243.18
2019-03-16T05:12:04.935Z,95286.28
2019-03-16T05:13:08.499Z,95249.73
2019-03-16T05:14:11.922Z,95262.84
2019-03-16T05:15:15.406Z,95248.98
2019-03-16T05:16:18.911Z,95248.98
2019-03-16T05:17:22.338Z,95254.63
2019-03-16T05:18:25.765Z,95251.42
2019-03-16T05:19:29.229Z,95239.98
2019-03-16T05:20:32.650Z,95259.66
2019-03-16T05:21:36.087Z,95263.80
2019-03-16T05:22:39.606Z,95256.11
2019-03-16T05:23:43.028Z,95256.11
2019-03-16T05:24:46.464Z,95233.25
2019-03-16T05:25:49.891Z,95260.23
2019-03-16T05:26:53.331Z,95265.86
2019-03-16T05:27:56.944Z,95253.68
2019-03-16T05:29:00.367Z,95221.63
2019-03-16T05:30:05.731Z,95232.52
2019-03-16T05:31:09.157Z,95232.52
2019-03-16T05:32:12.601Z,95236.08
2019-03-16T05:33:16.041Z,95236.08
2019-03-16T05:34:19.463Z,95242.63
2019-03-16T05:35:22.904Z,95245.08
2019-03-16T05:36:26.337Z,95245.08
2019-03-16T05:37:29.778Z,95237.20
2019-03-16T05:38:33.207Z,95255.94
2019-03-16T05:39:36.640Z,95245.63
2019-03-16T05:40:40.072Z,95256.88
2019-03-16T05:41:43.503Z,95240.38
2019-03-16T05:42:46.943Z,95252.55
2019-03-16T05:43:50.373Z,95238.88
2019-03-16T05:44:53.795Z,95246.95
2019-03-16T05:45:57.284Z,95239.64
2019-03-16T05:47:00.712Z,95257.80
2019-03-16T05:48:04.232Z,95257.80
2019-03-16T05:49:07.657Z,95256.69
2019-03-16T05:50:14.657Z,95248.83
2019-03-16T05:51:18.081Z,95243.75
2019-03-16T05:52:21.535Z,95273.36
2019-03-16T05:53:25.018Z,95255.76
2019-03-16T05:54:28.470Z,95239.28
2019-03-16T05:55:31.876Z,95268.31
2019-03-16T05:56:35.307Z,95244.13
2019-03-16T05:57:38.742Z,95253.33
2019-03-16T05:58:42.185Z,95243.76
2019-03-16T05:59:45.602Z,95256.12
2019-03-16T06:00:49.031Z,95263.25
2019-03-16T06:01:52.446Z,95252.00
2019-03-16T06:02:55.859Z,95249.38
2019-03-16T06:03:59.371Z,95255.00
2019-03-16T06:05:10.534Z,95261.94
2019-03-16T06:06:08.066Z,95251.27
2019-03-16T06:07:11.501Z,95255.76
2019-03-16T06:08:15.067Z,95245.81
2019-03-16T06:09:18.509Z,95255.38
2019-03-16T06:10:22.017Z,95277.50
2019-03-16T06:11:25.505Z,95277.50
2019-03-16T06:12:28.940Z,95270.39
2019-03-16T06:13:32.380Z,95270.39
2019-03-16T06:14:35.817Z,95253.52
2019-03-16T06:15:39.412Z,95284.27
2019-03-16T06:16:42.900Z,95285.02
2019-03-16T06:17:46.330Z,95299.45
2019-03-16T06:18:49.819Z,95265.34
2019-03-16T06:19:53.277Z,95283.87
2019-03-16T06:20:56.695Z,95278.07
2019-03-16T06:22:00.191Z,95283.69
2019-03-16T06:23:03.623Z,95298.89
2019-03-16T06:24:07.047Z,95291.75
2019-03-16T06:25:10.842Z,95306.17
2019-03-16T06:26:14.283Z,95285.94
2019-03-16T06:27:17.703Z,95285.94
2019-03-16T06:28:21.124Z,95309.39
2019-03-16T06:29:24.548Z,95307.14
2019-03-16T06:30:27.996Z,95309.19
2019-03-16T06:31:31.442Z,95299.63
2019-03-16T06:32:34.932Z,95313.30
2019-03-16T06:33:38.345Z,95306.39
2019-03-16T06:34:41.767Z,95295.13
2019-03-16T06:35:45.211Z,95296.24
2019-03-16T06:36:48.638Z,95303.00
2019-03-16T06:37:52.055Z,95299.06
2019-03-16T06:38:55.489Z,95321.76
2019-03-16T06:39:58.986Z,95321.76
2019-03-16T06:41:02.424Z,95302.42
2019-03-16T06:42:05.845Z,95302.42
2019-03-16T06:43:09.265Z,95298.87
2019-03-16T06:44:12.696Z,95307.33
2019-03-16T06:45:16.211Z,95310.12
2019-03-16T06:46:19.736Z,95302.80
2019-03-16T06:47:23.354Z,95315.37
2019-03-16T06:48:26.701Z,95324.56
2019-03-16T06:49:30.121Z,95327.38
2019-03-16T06:50:33.538Z,95325.31
2019-03-16T06:51:36.986Z,95319.31
2019-03-16T06:52:40.496Z,95314.44
2019-03-16T06:53:43.921Z,95308.23
2019-03-16T06:54:47.353Z,95321.00
2019-03-16T06:55:51.250Z,95301.13
2019-03-16T06:56:54.701Z,95297.56
2019-03-16T06:57:58.132Z,95306.19
2019-03-16T06:59:01.562Z,95306.19
2019-03-16T07:00:13.064Z,95332.05
2019-03-16T07:01:16.495Z,95356.98
2019-03-16T07:02:20.012Z,95336.19
2019-03-16T07:03:23.441Z,95336.75
2019-03-16T07:04:26.885Z,95348.94
2019-03-16T07:05:38.132Z,95345.75
2019-03-16T07:06:35.459Z,95344.98
2019-03-16T07:07:38.887Z,95343.13
2019-03-16T07:08:42.324Z,95357.77
2019-03-16T07:09:45.753Z,95354.00
2019-03-16T07:10:49.175Z,95344.81
2019-03-16T07:11:52.664Z,95345.55
2019-03-16T07:12:56.113Z,95367.85
2019-03-16T07:13:59.602Z,95349.87
2019-03-16T07:15:03.267Z,95368.26
2019-03-16T07:16:06.692Z,95368.26
2019-03-16T07:17:10.131Z,95363.94
2019-03-16T07:18:13.568Z,95358.87
2019-03-16T07:19:16.997Z,95358.69
2019-03-16T07:20:20.407Z,95355.86
2019-03-16T07:21:23.838Z,95354.38
2019-03-16T07:22:27.262Z,95362.80
2019-03-16T07:23:30.847Z,95360.00
2019-03-16T07:24:34.406Z,95360.00
2019-03-16T07:25:37.822Z,95360.76
2019-03-16T07:26:41.241Z,95364.89
2019-03-16T07:27:44.677Z,95372.38
2019-03-16T07:28:48.123Z,95364.13
2019-03-16T07:29:51.543Z,95364.33
2019-03-16T07:30:54.968Z,95373.89
2019-03-16T07:31:58.398Z,95362.26
2019-03-16T07:33:01.821Z,95383.64
2019-03-16T07:34:05.339Z,95354.03
2019-03-16T07:35:09.001Z,95383.45
2019-03-16T07:36:12.426Z,95356.64
2019-03-16T07:37:15.843Z,95362.09
2019-03-16T07:38:19.266Z,95383.48
2019-03-16T07:39:22.707Z,95372.60
2019-03-16T07:40:26.133Z,95370.14
2019-03-16T07:41:32.622Z,95376.53
2019-03-16T07:42:36.087Z,95370.16
2019-03-16T07:43:39.509Z,95384.98
2019-03-16T07:44:42.950Z,95392.48
2019-03-16T07:45:46.367Z,95363.04
2019-03-16T07:46:49.856Z,95386.47
2019-03-16T07:47:53.301Z,95392.66
2019-03-16T07:48:56.785Z,95381.98
2019-03-16T07:50:00.412Z,95375.03
2019-03-16T07:51:03.957Z,95385.54
2019-03-16T07:52:07.624Z,95370.91
2019-03-16T07:53:11.020Z,95390.59
2019-03-16T07:54:14.445Z,95392.87
2019-03-16T07:55:18.024Z,95404.48
2019-03-16T07:56:21.451Z,95393.44
2019-03-16T07:57:24.875Z,95398.69
2019-03-16T07:58:28.295Z,95384.04
2019-03-16T07:59:31.711Z,95396.23
2019-03-16T08:00:35.143Z,95393.22
2019-03-16T08:01:38.582Z,95394.55
2019-03-16T08:02:42.092Z,95394.55
2019-03-16T08:03:45.516Z,95407.30
2019-03-16T08:04:48.940Z,95397.56
2019-03-16T08:05:52.382Z,95396.42
2019-03-16T08:06:55.857Z,95404.30
2019-03-16T08:07:59.276Z,95391.16
2019-03-16T08:09:02.752Z,95404.31
2019-03-16T08:10:10.735Z,95389.67
2019-03-16T08:11:14.184Z,95385.91
2019-03-16T08:12:17.606Z,95386.84
2019-03-16T08:13:21.099Z,95399.25
2019-03-16T08:14:24.522Z,95394.38
2019-03-16T08:15:28.335Z,95396.23
2019-03-16T08:16:31.761Z,95394.36
2019-03-16T08:17:35.194Z,95390.63
2019-03-16T08:18:38.628Z,95388.17
2019-03-16T08:19:42.096Z,95392.10
2019-03-16T08:20:45.526Z,95400.73
2019-03-16T08:21:48.968Z,95402.42
2019-03-16T08:22:52.464Z,95393.98
2019-03-16T08:23:55.884Z,95398.67
2019-03-16T08:24:59.321Z,95398.53
2019-03-16T08:26:02.746Z,95373.16
2019-03-16T08:27:07.518Z,95391.73
2019-03-16T08:28:11.206Z,95394.21
2019-03-16T08:29:14.666Z,95399.45
2019-03-16T08:30:18.173Z,95396.09
2019-03-16T08:31:21.636Z,95397.02
2019-03-16T08:32:25.525Z,95396.84
2019-03-16T08:33:29.008Z,95390.65
2019-03-16T08:34:32.431Z,95408.11
2019-03-16T08:35:35.871Z,95411.84
2019-03-16T08:36:39.333Z,95395.34
2019-03-16T08:37:42.790Z,95403.21
2019-03-16T08:38:46.219Z,95401.91
2019-03-16T08:39:49.642Z,95402.47
2019-03-16T08:40:53.151Z,95408.27
2019-03-16T08:41:56.602Z,95409.23
2019-03-16T08:43:00.136Z,95406.95
2019-03-16T08:44:04.323Z,95417.30
2019-03-16T08:45:09.387Z,95409.78
2019-03-16T08:46:12.839Z,95413.72
2019-03-16T08:47:16.355Z,95404.33
2019-03-16T08:48:22.982Z,95412.97
2019-03-16T08:49:25.011Z,95400.97
2019-03-16T08:50:28.436Z,95407.54
2019-03-16T08:51:31.874Z,95409.97
2019-03-16T08:52:35.450Z,95419.55
2019-03-16T08:53:38.913Z,95409.22
2019-03-16T08:54:42.402Z,95430.81
2019-03-16T08:55:45.964Z,95414.30
2019-03-16T08:56:49.396Z,95411.30
2019-03-16T08:58:05.397Z,95414.48
2019-03-16T08:58:58.073Z,95442.06
2019-03-16T09:00:01.491Z,95418.23
2019-03-16T09:01:05.057Z,95427.98
2019-03-16T09:02:08.482Z,95402.45
2019-03-16T09:03:11.933Z,95415.79
2019-03-16T09:04:15.377Z,95412.05
2019-03-16T09:05:18.799Z,95403.02
2019-03-16T09:06:22.229Z,95413.36
2019-03-16T09:07:25.666Z,95402.65
2019-03-16T09:08:29.186Z,95407.14
2019-03-16T09:09:32.610Z,95397.37
2019-03-16T09:10:36.035Z,95393.45
2019-03-16T09:11:39.546Z,95417.09
2019-03-16T09:12:54.470Z,95435.86
2019-03-16T09:13:48.231Z,95425.53
2019-03-16T09:14:51.676Z,95427.99
2019-03-16T09:15:55.101Z,95400.00
2019-03-16T09:16:58.527Z,95417.65
2019-03-16T09:18:02.019Z,95423.27
2019-03-16T09:19:05.475Z,95419.14
2019-03-16T09:20:09.639Z,95437.53
2019-03-16T09:21:13.058Z,95405.42
2019-03-16T09:22:16.560Z,95430.05
2019-03-16T09:23:20.013Z,95419.70
2019-03-16T09:24:23.526Z,95417.84
2019-03-16T09:25:26.975Z,95401.85
2019-03-16T09:26:30.425Z,95408.42
2019-03-16T09:27:33.846Z,95415.73
2019-03-16T09:28:37.274Z,95418.73
2019-03-16T09:29:40.728Z,95397.12
2019-03-16T09:30:44.252Z,95411.20
2019-03-16T09:31:47.685Z,95412.35
2019-03-16T09:32:51.161Z,95404.30
2019-03-16T09:33:54.591Z,95415.93
2019-03-16T09:34:58.055Z,95412.14
2019-03-16T09:36:01.472Z,95418.70
2019-03-16T09:37:04.978Z,95400.28
2019-03-16T09:38:08.429Z,95415.70
2019-03-16T09:39:11.856Z,95405.54
2019-03-16T09:40:15.446Z,95413.21
2019-03-16T09:41:18.967Z,95402.89
2019-03-16T09:42:22.394Z,95401.94
2019-03-16T09:43:25.926Z,95403.45
2019-03-16T09:44:29.374Z,95409.08
2019-03-16T09:45:32.895Z,95404.36
2019-03-16T09:46:36.327Z,95400.04
2019-03-16T09:47:39.839Z,95413.57
2019-03-16T09:48:43.274Z,95420.90
2019-03-16T09:49:46.717Z,95414.89
2019-03-16T09:50:50.162Z,95412.77
2019-03-16T09:51:53.681Z,95414.45
2019-03-16T09:52:57.104Z,95419.52
2019-03-16T09:54:00.573Z,95415.79
2019-03-16T09:55:05.756Z,95415.01
2019-03-16T09:56:09.201Z,95417.09
2019-03-16T09:57:12.627Z,95410.28
2019-03-16T09:58:16.163Z,95401.97
2019-03-16T09:59:19.572Z,95398.08
2019-03-16T10:00:23.000Z,95410.70
2019-03-16T10:01:26.527Z,95423.27
2019-03-16T10:02:29.975Z,95419.13
2019-03-16T10:03:33.540Z,95443.20
2019-03-16T10:04:36.977Z,95417.08
2019-03-16T10:05:40.386Z,95406.58
2019-03-16T10:06:43.839Z,95430.44
2019-03-16T10:07:47.382Z,95423.30
2019-03-16T10:08:50.808Z,95415.20
2019-03-16T10:09:54.303Z,95415.38
2019-03-16T10:10:57.833Z,95423.47
2019-03-16T10:12:01.281Z,95411.23
2019-03-16T10:13:04.826Z,95413.47
2019-03-16T10:14:08.346Z,95430.00
2019-03-16T10:15:12.977Z,95405.38
2019-03-16T10:16:16.419Z,95408.41
2019-03-16T10:17:19.879Z,95413.25
2019-03-16T10:18:25.407Z,95418.66
2019-03-16T10:19:28.833Z,95403.23
2019-03-16T10:20:32.334Z,95416.16
2019-03-16T10:21:35.766Z,95405.86
2019-03-16T10:22:39.278Z,95402.80
2019-03-16T10:23:42.783Z,95404.28
2019-03-16T10:24:46.217Z,95399.77
2019-03-16T10:25:49.657Z,95393.91
2019-03-16T10:26:53.083Z,95397.49
2019-03-16T10:27:56.601Z,95378.33
2019-03-16T10:29:00.049Z,95403.48
2019-03-16T10:30:04.216Z,95390.47
2019-03-16T10:31:07.736Z,95399.33
2019-03-16T10:32:11.170Z,95390.31
2019-03-16T10:33:14.622Z,95390.31
2019-03-16T10:34:18.051Z,95393.50
2019-03-16T10:35:21.472Z,95381.32
2019-03-16T10:36:24.925Z,95391.50
2019-03-16T10:37:28.343Z,95389.27
2019-03-16T10:38:31.798Z,95385.31
2019-03-16T10:39:35.298Z,95377.97
2019-03-16T10:40:38.730Z,95386.95
2019-03-16T10:41:42.162Z,95385.00
2019-03-16T10:42:45.591Z,95386.84
2019-03-16T10:43:49.043Z,95373.66
2019-03-16T10:44:52.479Z,95376.30
2019-03-16T10:45:55.897Z,95386.05
2019-03-16T10:46:59.452Z,95385.52
2019-03-16T10:48:02.877Z,95377.83
2019-03-16T10:49:06.315Z,95383.89
2019-03-16T10:50:13.688Z,95376.38
2019-03-16T10:51:17.126Z,95378.61
2019-03-16T10:52:20.555Z,95377.26
2019-03-16T10:53:23.995Z,95377.50
2019-03-16T10:54:27.522Z,95374.06
2019-03-16T10:55:30.965Z,95380.45
2019-03-16T10:56:34.468Z,95383.09
2019-03-16T10:57:37.954Z,95364.88
2019-03-16T10:58:41.400Z,95366.99
2019-03-16T10:59:44.836Z,95366.24
2019-03-16T11:00:48.282Z,95374.89
2019-03-16T11:01:51.718Z,95379.93
2019-03-16T11:02:55.133Z,95375.02
2019-03-16T11:03:58.645Z,95390.23
2019-03-16T11:05:02.132Z,95379.93
2019-03-16T11:06:05.612Z,95366.36
2019-03-16T11:07:09.140Z,95380.33
2019-03-16T11:08:12.542Z,95363.08
2019-03-16T11:09:15.971Z,95378.81
2019-03-16T11:10:19.446Z,95372.14
2019-03-16T11:11:22.872Z,95369.47
2019-03-16T11:12:26.308Z,95385.08
2019-03-16T11:13:29.733Z,95378.42
2019-03-16T11:14:33.303Z,95380.45
2019-03-16T11:15:36.764Z,95369.91
2019-03-16T11:16:40.259Z,95366.84
2019-03-16T11:17:43.820Z,95372.70
2019-03-16T11:18:47.242Z,95367.95
2019-03-16T11:19:50.681Z,95366.94
2019-03-16T11:20:54.215Z,95352.75
2019-03-16T11:21:57.648Z,95358.39
2019-03-16T11:23:01.071Z,95360.91
2019-03-16T11:24:04.579Z,95345.20
2019-03-16T11:25:08.387Z,95371.71
2019-03-16T11:26:11.839Z,95363.34
2019-03-16T11:27:17.167Z,95367.91
2019-03-16T11:28:20.426Z,95362.29
2019-03-16T11:29:23.929Z,95375.16
2019-03-16T11:30:27.364Z,95353.66
2019-03-16T11:31:32.099Z,95352.34
2019-03-16T11:32:35.560Z,95353.73
2019-03-16T11:33:38.985Z,95343.28
2019-03-16T11:34:42.424Z,95362.09
2019-03-16T11:35:45.860Z,95360.30
2019-03-16T11:36:49.327Z,95352.16
2019-03-16T11:37:52.759Z,95363.86
2019-03-16T11:38:56.192Z,95346.11
2019-03-16T11:39:59.627Z,95361.27
2019-03-16T11:41:03.062Z,95372.11
2019-03-16T11:42:06.512Z,95353.22
2019-03-16T11:43:09.958Z,95334.59
2019-03-16T11:44:13.396Z,95358.96
2019-03-16T11:45:17.571Z,95341.14
2019-03-16T11:46:21.135Z,95345.80
2019-03-16T11:47:24.581Z,95332.92
2019-03-16T11:48:28.022Z,95335.83
2019-03-16T11:49:31.449Z,95337.88
2019-03-16T11:50:34.888Z,95334.91
2019-03-16T11:51:38.314Z,95333.89
2019-03-16T11:52:41.770Z,95337.02
2019-03-16T11:53:45.210Z,95326.63
2019-03-16T11:54:48.703Z,95328.27
2019-03-16T11:55:54.330Z,95323.01
2019-03-16T11:56:57.367Z,95319.16
2019-03-16T11:58:00.830Z,95311.83
2019-03-16T11:59:04.332Z,95302.08
2019-03-16T12:00:10.606Z,95312.18
2019-03-16T12:01:14.038Z,95304.72
2019-03-16T12:02:17.474Z,95301.73
2019-03-16T12:03:20.943Z,95292.63
2019-03-16T12:04:24.465Z,95291.02
2019-03-16T12:05:27.893Z,95295.86
2019-03-16T12:06:31.331Z,95289.16
2019-03-16T12:07:34.761Z,95290.31
2019-03-16T12:08:39.651Z,95294.52
2019-03-16T12:09:43.304Z,95288.81
2019-03-16T12:10:46.746Z,95289.99
2019-03-16T12:11:50.166Z,95286.52
2019-03-16T12:12:53.590Z,95288.94
2019-03-16T12:13:57.029Z,95278.52
2019-03-16T12:15:00.524Z,95281.86
2019-03-16T12:16:03.927Z,95276.80
2019-03-16T12:17:07.358Z,95277.28
2019-03-16T12:18:10.857Z,95273.73
2019-03-16T12:19:14.317Z,95277.42
2019-03-16T12:20:18.848Z,95273.86
2019-03-16T12:21:22.304Z,95278.20
2019-03-16T12:22:25.808Z,95281.56
2019-03-16T12:23:29.249Z,95278.19
2019-03-16T12:24:32.695Z,95273.86
2019-03-16T12:25:36.148Z,95275.70
2019-03-16T12:26:39.576Z,95277.50